createdAt,value
2022-12-15T00:02:19.494Z,0.70
2022-12-15T00:05:06.001Z,1.53
2022-12-15T00:07:52.159Z,1.43
2022-12-15T00:10:38.360Z,1.30
2022-12-15T00:13:31.635Z,0.83
2022-12-15T00:16:17.976Z,1.07
2022-12-15T00:19:04.521Z,0.87
2022-12-15T00:21:50.837Z,0.50
2022-12-15T00:24:37.041Z,0.70
2022-12-15T00:27:23.000Z,2.23
2022-12-15T00:30:08.884Z,1.30
2022-12-15T00:32:54.722Z,2.80
2022-12-15T00:35:40.679Z,2.10
2022-12-15T00:38:31.362Z,2.50
2022-12-15T00:41:01.568Z,1.17
2022-12-15T00:43:29.973Z,2.13
2022-12-15T00:46:16.336Z,1.47
2022-12-15T00:48:43.838Z,1.67
2022-12-15T00:51:11.286Z,1.33
2022-12-15T00:53:57.320Z,1.80
2022-12-15T00:56:43.798Z,1.00
2022-12-15T00:59:30.084Z,1.37
2022-12-15T01:02:16.159Z,1.23
2022-12-15T01:05:02.126Z,0.90
2022-12-15T01:07:49.648Z,0.93
2022-12-15T01:10:37.079Z,0.97
2022-12-15T01:13:23.881Z,0.53
2022-12-15T01:16:10.111Z,0.47
2022-12-15T01:18:56.121Z,0.60
2022-12-15T01:21:25.542Z,0.50
2022-12-15T01:23:53.562Z,4.20
2022-12-15T01:26:21.078Z,3.50
2022-12-15T01:28:48.482Z,0.60
2022-12-15T01:31:15.965Z,0.90
2022-12-15T01:33:43.915Z,0.50
2022-12-15T01:36:11.483Z,0.43
2022-12-15T01:38:38.840Z,0.40
2022-12-15T01:41:08.161Z,0.87
2022-12-15T01:43:36.838Z,0.70
2022-12-15T01:46:04.280Z,0.80
2022-12-15T01:48:37.597Z,1.77
2022-12-15T01:51:13.844Z,0.60
2022-12-15T01:53:43.520Z,0.63
2022-12-15T01:56:12.038Z,0.80
2022-12-15T01:58:43.239Z,0.57
2022-12-15T02:01:11.225Z,0.57
2022-12-15T02:03:39.165Z,0.87
2022-12-15T02:06:07.366Z,0.50
2022-12-15T02:08:34.834Z,0.67
2022-12-15T02:11:02.160Z,0.53
2022-12-15T02:13:52.884Z,0.30
2022-12-15T02:16:29.396Z,0.57
2022-12-15T02:18:59.844Z,0.53
2022-12-15T02:21:33.118Z,1.60
2022-12-15T02:24:19.278Z,0.80
2022-12-15T02:27:00.879Z,1.00
2022-12-15T02:29:31.320Z,1.53
2022-12-15T02:32:18.998Z,0.87
2022-12-15T02:34:53.211Z,0.67
2022-12-15T02:37:25.841Z,0.70
2022-12-15T02:39:53.161Z,0.70
2022-12-15T02:42:20.602Z,0.40
2022-12-15T02:44:59.530Z,0.60
2022-12-15T02:47:35.041Z,0.57
2022-12-15T02:50:11.519Z,0.70
2022-12-15T02:52:41.879Z,0.40
2022-12-15T02:55:21.641Z,0.70
2022-12-15T02:57:53.961Z,0.70
2022-12-15T03:00:21.382Z,1.37
2022-12-15T03:02:51.189Z,1.43
2022-12-15T03:05:19.320Z,0.80
2022-12-15T03:07:49.646Z,0.50
2022-12-15T03:10:18.083Z,0.80
2022-12-15T03:12:45.399Z,0.90
2022-12-15T03:15:12.919Z,0.60
2022-12-15T03:17:40.320Z,0.70
2022-12-15T03:20:08.882Z,0.50
2022-12-15T03:22:36.882Z,0.40
2022-12-15T03:25:04.879Z,0.40
2022-12-15T03:27:32.280Z,0.40
2022-12-15T03:29:59.643Z,0.70
2022-12-15T03:32:26.960Z,0.80
2022-12-15T03:34:55.320Z,1.53
2022-12-15T03:37:22.679Z,0.70
2022-12-15T03:39:50.010Z,0.73
2022-12-15T03:42:37.440Z,0.80
2022-12-15T03:45:05.279Z,0.70
2022-12-15T03:47:32.646Z,0.40
2022-12-15T03:50:00.005Z,0.73
2022-12-15T03:52:27.481Z,0.73
2022-12-15T03:54:54.801Z,0.93
2022-12-15T03:57:22.241Z,0.93
2022-12-15T03:59:49.678Z,0.40
2022-12-15T04:02:17.354Z,0.60
2022-12-15T04:04:44.883Z,0.50
2022-12-15T04:07:12.161Z,1.47
2022-12-15T04:09:39.570Z,1.63
2022-12-15T04:12:07.323Z,1.10
2022-12-15T04:14:34.781Z,1.90
2022-12-15T04:17:02.087Z,0.93
2022-12-15T04:19:48.522Z,0.60
2022-12-15T04:22:18.030Z,1.00
2022-12-15T04:25:04.322Z,0.67
2022-12-15T04:27:50.677Z,0.70
2022-12-15T04:30:37.232Z,0.50
2022-12-15T04:33:29.094Z,1.30
2022-12-15T04:36:16.641Z,0.30
2022-12-15T04:39:02.961Z,0.40
2022-12-15T04:41:51.041Z,0.50
2022-12-15T04:44:37.004Z,0.50
2022-12-15T04:47:23.440Z,1.00
2022-12-15T04:50:09.199Z,0.50
2022-12-15T04:52:55.402Z,1.37
2022-12-15T04:55:41.718Z,1.50
2022-12-15T04:58:28.280Z,2.10
2022-12-15T05:01:16.546Z,1.27
2022-12-15T05:04:06.298Z,0.47
2022-12-15T05:06:52.690Z,0.87
2022-12-15T05:09:38.999Z,0.70
2022-12-15T05:12:25.046Z,0.50
2022-12-15T05:15:11.239Z,0.70
2022-12-15T05:17:59.809Z,0.30
2022-12-15T05:20:45.881Z,0.40
2022-12-15T05:23:36.281Z,0.40
2022-12-15T05:26:22.402Z,1.37
2022-12-15T05:29:08.481Z,0.80
2022-12-15T05:31:54.767Z,0.40
2022-12-15T05:34:23.242Z,0.30
2022-12-15T05:36:51.001Z,0.77
2022-12-15T05:39:18.679Z,0.83
2022-12-15T05:41:46.520Z,1.37
2022-12-15T05:44:14.162Z,2.10
2022-12-15T05:46:41.589Z,1.53
2022-12-15T05:49:09.840Z,1.30
2022-12-15T05:51:39.244Z,1.90
2022-12-15T05:54:07.721Z,0.90
2022-12-15T05:56:35.319Z,0.77
2022-12-15T05:59:02.963Z,0.73
2022-12-15T06:01:31.562Z,0.80
2022-12-15T06:03:59.400Z,1.27
2022-12-15T06:06:26.721Z,3.13
2022-12-15T06:08:54.199Z,1.03
2022-12-15T06:11:22.442Z,1.70
2022-12-15T06:13:50.488Z,0.60
2022-12-15T06:16:18.972Z,0.40
2022-12-15T06:18:50.124Z,1.23
2022-12-15T06:21:23.919Z,0.40
2022-12-15T06:23:51.241Z,1.73
2022-12-15T06:26:20.802Z,2.17
2022-12-15T06:28:49.106Z,4.23
2022-12-15T06:31:17.895Z,1.77
2022-12-15T06:33:45.924Z,1.10
2022-12-15T06:36:15.301Z,1.60
2022-12-15T06:38:45.640Z,1.20
2022-12-15T06:41:18.683Z,1.33
2022-12-15T06:43:53.196Z,1.47
2022-12-15T06:46:21.169Z,0.70
2022-12-15T06:48:48.963Z,1.03
2022-12-15T06:51:17.617Z,2.20
2022-12-15T06:53:49.175Z,2.10
2022-12-15T06:56:23.220Z,2.50
2022-12-15T06:58:53.758Z,4.70
2022-12-15T07:01:22.552Z,2.10
2022-12-15T07:03:53.480Z,1.43
2022-12-15T07:06:21.243Z,3.03
2022-12-15T07:08:56.647Z,3.20
2022-12-15T07:11:24.801Z,1.80
2022-12-15T07:13:52.914Z,1.53
2022-12-15T07:16:21.601Z,1.23
2022-12-15T07:18:49.366Z,2.43
2022-12-15T07:21:16.842Z,1.13
2022-12-15T07:24:00.766Z,2.33
2022-12-15T07:26:29.630Z,1.90
2022-12-15T07:28:57.081Z,0.90
2022-12-15T07:31:24.586Z,0.70
2022-12-15T07:33:52.846Z,0.53
2022-12-15T07:36:20.526Z,0.50
2022-12-15T07:38:50.090Z,0.40
2022-12-15T07:41:19.006Z,1.20
2022-12-15T07:43:47.973Z,2.23
2022-12-15T07:46:15.853Z,3.77
2022-12-15T07:48:43.290Z,1.80
2022-12-15T07:51:18.869Z,2.03
2022-12-15T07:53:47.441Z,1.67
2022-12-15T07:56:15.660Z,2.63
2022-12-15T07:58:43.143Z,1.73
2022-12-15T08:01:12.692Z,3.40
2022-12-15T08:03:40.981Z,2.47
2022-12-15T08:06:12.663Z,4.43
2022-12-15T08:08:40.575Z,2.20
2022-12-15T08:11:09.127Z,5.90
2022-12-15T08:16:24.378Z,1.57
2022-12-15T08:18:51.880Z,1.40
2022-12-15T08:21:19.162Z,3.47
2022-12-15T08:23:46.719Z,5.83
2022-12-15T08:26:19.003Z,5.73
2022-12-15T08:28:46.771Z,8.67
2022-12-15T08:31:16.803Z,8.03
2022-12-15T08:33:45.104Z,3.47
2022-12-15T08:36:13.840Z,3.90
2022-12-15T08:38:42.639Z,3.40
2022-12-15T08:41:17.601Z,1.60
2022-12-15T08:43:48.478Z,1.53
2022-12-15T08:46:23.776Z,1.33
2022-12-15T08:48:52.964Z,1.13
2022-12-15T08:51:20.924Z,2.67
2022-12-15T08:53:48.953Z,1.40
2022-12-15T08:56:18.535Z,1.93
2022-12-15T08:58:46.642Z,1.20
2022-12-15T09:01:24.548Z,66.00
2022-12-15T09:03:54.038Z,41.83
2022-12-15T09:06:27.042Z,19.40
2022-12-15T09:08:56.730Z,3.87
2022-12-15T09:11:24.845Z,2.63
2022-12-15T09:13:52.211Z,2.00
2022-12-15T09:16:20.291Z,2.60
2022-12-15T09:18:49.015Z,2.20
2022-12-15T09:21:17.322Z,3.90
2022-12-15T09:23:48.081Z,4.10
2022-12-15T09:26:16.160Z,3.47
2022-12-15T09:28:44.241Z,3.00
2022-12-15T09:31:21.345Z,1.93
2022-12-15T09:33:49.525Z,1.53
2022-12-15T09:36:16.973Z,1.30
2022-12-15T09:38:44.960Z,0.77
2022-12-15T09:41:15.294Z,1.37
2022-12-15T09:43:47.510Z,1.07
2022-12-15T09:46:21.744Z,0.63
2022-12-15T09:48:49.961Z,1.80
2022-12-15T09:51:19.116Z,1.20
2022-12-15T09:53:57.027Z,1.23
2022-12-15T09:56:34.107Z,6.13
2022-12-15T09:59:10.722Z,4.87
2022-12-15T10:01:53.630Z,1.83
2022-12-15T10:04:35.312Z,5.60
2022-12-15T10:07:08.719Z,4.60
2022-12-15T10:09:37.807Z,0.83
2022-12-15T10:12:15.941Z,3.43
2022-12-15T10:14:55.607Z,0.93
2022-12-15T10:17:29.159Z,0.70
2022-12-15T10:20:00.520Z,0.83
2022-12-15T10:22:29.383Z,1.77
2022-12-15T10:25:12.196Z,1.33
2022-12-15T10:27:55.723Z,0.83
2022-12-15T10:30:23.270Z,1.17
2022-12-15T10:32:55.965Z,1.20
2022-12-15T10:35:27.083Z,1.10
2022-12-15T10:38:03.903Z,1.73
2022-12-15T10:40:50.996Z,2.70
2022-12-15T10:43:30.658Z,1.77
2022-12-15T10:46:07.754Z,1.43
2022-12-15T10:48:35.325Z,1.67
2022-12-15T10:51:30.964Z,2.33
2022-12-15T10:54:01.483Z,1.60
2022-12-15T10:56:33.466Z,0.80
2022-12-15T10:59:03.873Z,1.60
2022-12-15T11:01:35.967Z,1.43
2022-12-15T11:04:03.853Z,1.40
2022-12-15T11:06:33.967Z,1.33
2022-12-15T11:09:10.125Z,1.27
2022-12-15T11:12:05.240Z,1.33
2022-12-15T11:14:45.734Z,1.43
2022-12-15T11:17:20.923Z,1.20
2022-12-15T11:20:00.047Z,1.43
2022-12-15T11:22:41.362Z,1.50
2022-12-15T11:25:14.763Z,1.23
2022-12-15T11:27:45.483Z,1.20
2022-12-15T11:30:15.084Z,1.70
2022-12-15T11:32:44.169Z,1.37
2022-12-15T11:35:15.365Z,1.97
2022-12-15T11:37:48.763Z,1.40
2022-12-15T11:40:20.645Z,1.53
2022-12-15T11:42:53.799Z,1.07
2022-12-15T11:45:28.084Z,1.63
2022-12-15T11:48:06.723Z,2.53
2022-12-15T11:50:53.365Z,3.07
2022-12-15T11:53:30.879Z,0.80
2022-12-15T11:55:58.600Z,1.97
2022-12-15T11:58:29.061Z,2.17
2022-12-15T12:01:12.878Z,2.10
2022-12-15T12:03:43.162Z,2.00
2022-12-15T12:06:17.763Z,3.33
2022-12-15T12:08:45.239Z,1.23
2022-12-15T12:11:15.544Z,1.43
2022-12-15T12:13:42.999Z,1.23
2022-12-15T12:16:18.600Z,1.60
2022-12-15T12:18:50.677Z,2.10
2022-12-15T12:21:21.079Z,0.90
2022-12-15T12:23:51.325Z,0.87
2022-12-15T12:26:30.799Z,2.53
2022-12-15T12:29:03.921Z,1.30
2022-12-15T12:31:46.244Z,1.93
2022-12-15T12:34:24.201Z,1.50
2022-12-15T12:36:53.805Z,2.43
2022-12-15T12:39:23.999Z,2.00
2022-12-15T12:41:57.246Z,1.70
2022-12-15T12:44:24.564Z,2.73
2022-12-15T12:46:53.964Z,4.27
2022-12-15T12:49:30.003Z,2.83
2022-12-15T12:51:59.646Z,1.57
2022-12-15T12:54:39.158Z,1.60
2022-12-15T12:57:26.414Z,3.30
2022-12-15T12:59:59.611Z,2.60
2022-12-15T13:02:27.051Z,1.43
2022-12-15T13:05:13.205Z,2.47
2022-12-15T13:07:41.201Z,1.57
2022-12-15T13:10:08.602Z,0.90
2022-12-15T13:12:54.446Z,1.87
2022-12-15T13:15:31.078Z,2.27
2022-12-15T13:18:09.278Z,3.30
2022-12-15T13:20:37.883Z,2.93
2022-12-15T13:23:20.247Z,4.17
2022-12-15T13:25:56.825Z,5.77
2022-12-15T13:28:24.640Z,2.17
2022-12-15T13:31:10.763Z,1.80
2022-12-15T13:33:45.692Z,1.00
2022-12-15T13:36:50.738Z,0.93
2022-12-15T13:39:21.845Z,1.00
2022-12-15T13:42:31.747Z,0.90
2022-12-15T13:44:41.210Z,0.90
2022-12-15T13:47:21.799Z,2.37
2022-12-15T13:50:02.781Z,1.90
2022-12-15T13:55:33.520Z,0.80
2022-12-15T13:58:00.924Z,2.23
2022-12-15T14:00:28.399Z,3.97
2022-12-15T14:03:08.449Z,3.73
2022-12-15T14:05:36.723Z,2.40
2022-12-15T14:08:08.059Z,3.20
2022-12-15T14:10:47.078Z,2.17
2022-12-15T14:13:21.762Z,4.13
2022-12-15T14:15:56.920Z,2.17
2022-12-15T14:18:24.402Z,2.10
2022-12-15T14:20:51.919Z,4.10
2022-12-15T14:23:23.246Z,1.90
2022-12-15T14:25:57.930Z,1.57
2022-12-15T14:28:50.580Z,0.60
2022-12-15T14:31:22.144Z,1.13
2022-12-15T14:33:51.522Z,0.50
2022-12-15T14:36:22.002Z,1.47
2022-12-15T14:38:49.322Z,1.00
2022-12-15T14:41:25.042Z,1.20
2022-12-15T14:44:32.159Z,0.70
2022-12-15T14:46:41.241Z,0.57
2022-12-15T14:49:10.980Z,2.03
2022-12-15T14:51:43.404Z,1.27
2022-12-15T14:54:28.960Z,1.57
2022-12-15T14:57:15.001Z,1.57
2022-12-15T14:59:44.046Z,6.90
2022-12-15T15:02:14.234Z,9.67
2022-12-15T15:03:05.713Z,2.33
2022-12-15T15:04:41.842Z,3.47
2022-12-15T15:07:17.640Z,1.17
2022-12-15T15:09:45.766Z,0.80
2022-12-15T15:12:21.121Z,0.50
2022-12-15T15:14:48.444Z,0.50
2022-12-15T15:17:17.201Z,0.87
2022-12-15T15:19:52.960Z,0.53
2022-12-15T15:22:23.162Z,1.43
2022-12-15T15:24:52.572Z,0.90
2022-12-15T15:27:40.200Z,1.67
2022-12-15T15:30:19.481Z,0.90
2022-12-15T15:32:50.886Z,1.00
2022-12-15T15:35:19.280Z,1.67
2022-12-15T15:37:46.800Z,0.80
2022-12-15T15:40:16.118Z,1.17
2022-12-15T15:42:45.372Z,0.70
2022-12-15T15:45:16.763Z,0.87
2022-12-15T15:47:46.644Z,0.60
2022-12-15T15:50:15.325Z,2.37
2022-12-15T15:52:43.483Z,1.50
2022-12-15T15:55:14.521Z,2.00
2022-12-15T15:57:42.399Z,1.20
2022-12-15T16:00:38.724Z,1.63
2022-12-15T16:03:06.330Z,0.80
2022-12-15T16:05:34.003Z,0.60
2022-12-15T16:08:01.925Z,0.70
2022-12-15T16:10:29.281Z,1.43
2022-12-15T16:12:58.443Z,0.60
2022-12-15T16:15:27.214Z,0.70
2022-12-15T16:17:55.044Z,1.40
2022-12-15T16:20:27.399Z,0.67
2022-12-15T16:22:56.040Z,0.70
2022-12-15T16:25:33.039Z,0.70
2022-12-15T16:28:04.640Z,0.93
2022-12-15T16:30:31.961Z,0.90
2022-12-15T16:32:59.325Z,1.57
2022-12-15T16:35:26.955Z,0.60
2022-12-15T16:37:54.480Z,0.73
2022-12-15T16:40:25.924Z,0.47
2022-12-15T16:42:57.959Z,0.60
2022-12-15T16:45:26.804Z,1.27
2022-12-15T16:47:55.763Z,4.60
2022-12-15T16:50:26.081Z,6.07
2022-12-15T16:52:55.360Z,4.93
2022-12-15T16:55:22.843Z,9.03
2022-12-15T16:57:50.479Z,21.13
2022-12-15T17:00:28.761Z,8.10
2022-12-15T17:02:56.447Z,13.33
2022-12-15T17:05:26.519Z,6.00
2022-12-15T17:07:56.080Z,50.63
2022-12-15T17:10:25.208Z,11.50
2022-12-15T17:12:53.799Z,4.13
2022-12-15T17:15:25.414Z,0.70
2022-12-15T17:17:53.559Z,0.40
2022-12-15T17:20:29.483Z,0.37
2022-12-15T17:22:59.805Z,1.40
2022-12-15T17:25:54.019Z,8.57
2022-12-15T17:28:23.480Z,5.07
2022-12-15T17:30:54.145Z,2.97
2022-12-15T17:33:25.999Z,19.73
2022-12-15T17:35:58.002Z,5.10
2022-12-15T17:38:25.399Z,2.37
2022-12-15T17:40:53.720Z,0.97
2022-12-15T17:43:22.784Z,0.67
2022-12-15T17:45:56.403Z,1.57
2022-12-15T17:48:26.737Z,1.33
2022-12-15T17:50:54.240Z,0.40
2022-12-15T17:53:22.599Z,0.50
2022-12-15T17:55:50.481Z,0.53
2022-12-15T17:58:18.799Z,1.63
2022-12-15T18:00:49.315Z,0.60
2022-12-15T18:03:17.144Z,0.43
2022-12-15T18:05:44.846Z,0.67
2022-12-15T18:08:16.934Z,0.67
2022-12-15T18:10:44.841Z,0.67
2022-12-15T18:13:15.962Z,1.40
2022-12-15T18:15:43.924Z,0.97
2022-12-15T18:18:11.644Z,0.97
2022-12-15T18:20:39.239Z,0.80
2022-12-15T18:23:13.123Z,2.73
2022-12-15T18:25:40.481Z,1.20
2022-12-15T18:28:19.559Z,0.70
2022-12-15T18:30:46.924Z,0.43
2022-12-15T18:33:14.527Z,0.40
2022-12-15T18:35:43.159Z,0.57
2022-12-15T18:38:20.879Z,1.33
2022-12-15T18:40:55.919Z,1.10
2022-12-15T18:43:25.208Z,0.50
2022-12-15T18:45:53.121Z,2.10
2022-12-15T18:48:21.879Z,0.87
2022-12-15T18:50:52.720Z,1.70
2022-12-15T18:53:23.322Z,1.30
2022-12-15T18:55:50.681Z,1.80
2022-12-15T18:58:22.759Z,1.27
2022-12-15T19:00:50.442Z,1.37
2022-12-15T19:03:18.664Z,1.83
2022-12-15T19:05:46.279Z,1.70
2022-12-15T19:08:36.130Z,1.53
2022-12-15T19:11:06.640Z,1.77
2022-12-15T19:13:35.967Z,3.73
2022-12-15T19:16:04.484Z,1.80
2022-12-15T19:18:50.722Z,2.60
2022-12-15T19:21:48.165Z,6.93
2022-12-15T19:24:16.924Z,1.57
2022-12-15T19:26:44.362Z,1.07
2022-12-15T19:29:16.799Z,0.70
2022-12-15T19:31:44.372Z,2.90
2022-12-15T19:34:12.279Z,22.40
2022-12-15T19:36:40.084Z,14.17
2022-12-15T19:39:09.403Z,33.33
2022-12-15T19:41:38.278Z,39.00
2022-12-15T19:44:15.246Z,13.67
2022-12-15T19:46:43.285Z,65.00
2022-12-15T19:49:10.918Z,48.23
2022-12-15T19:51:38.721Z,15.43
2022-12-15T19:54:06.320Z,5.37
2022-12-15T19:56:33.721Z,54.60
2022-12-15T19:59:01.043Z,75.27
2022-12-15T20:01:28.427Z,58.17
2022-12-15T20:03:55.881Z,11.83
2022-12-15T20:06:27.484Z,76.57
2022-12-15T20:08:56.267Z,128.17
2022-12-15T20:11:25.286Z,91.23
2022-12-15T20:13:53.044Z,74.77
2022-12-15T20:16:20.972Z,18.37
2022-12-15T20:18:49.402Z,3.80
2022-12-15T20:21:22.221Z,1.57
2022-12-15T20:23:52.280Z,1.13
2022-12-15T20:26:20.040Z,0.97
2022-12-15T20:28:47.364Z,33.70
2022-12-15T20:31:15.744Z,89.73
2022-12-15T20:33:44.521Z,13.17
2022-12-15T20:36:16.162Z,2.83
2022-12-15T20:38:44.235Z,1.20
2022-12-15T20:41:16.880Z,0.93
2022-12-15T20:43:44.241Z,0.70
2022-12-15T20:46:15.779Z,0.87
2022-12-15T20:48:44.040Z,2.63
2022-12-15T20:51:22.966Z,1.10
2022-12-15T20:53:51.442Z,1.03
2022-12-15T20:56:21.121Z,0.50
2022-12-15T20:58:48.561Z,0.20
2022-12-15T21:01:21.113Z,1.00
2022-12-15T21:03:50.258Z,1.73
2022-12-15T21:06:19.504Z,1.37
2022-12-15T21:08:46.922Z,1.13
2022-12-15T21:11:16.120Z,0.97
2022-12-15T21:13:43.721Z,0.63
2022-12-15T21:16:19.816Z,0.47
2022-12-15T21:21:36.183Z,0.40
2022-12-15T21:24:08.081Z,0.60
2022-12-15T21:26:35.481Z,0.40
2022-12-15T21:29:03.165Z,1.07
2022-12-15T21:31:30.648Z,0.60
2022-12-15T21:33:57.961Z,1.73
2022-12-15T21:36:25.483Z,0.80
2022-12-15T21:38:52.961Z,0.50
2022-12-15T21:41:23.571Z,0.60
2022-12-15T21:43:51.284Z,1.33
2022-12-15T21:46:20.592Z,0.60
2022-12-15T21:49:09.442Z,0.50
2022-12-15T21:51:38.078Z,0.53
2022-12-15T21:54:06.484Z,0.40
2022-12-15T21:56:33.882Z,0.53
2022-12-15T21:59:01.216Z,0.73
2022-12-15T22:01:30.105Z,1.20
2022-12-15T22:03:58.361Z,0.60
2022-12-15T22:06:27.766Z,1.10
2022-12-15T22:08:56.082Z,0.50
2022-12-15T22:11:24.845Z,0.60
2022-12-15T22:13:52.961Z,0.40
2022-12-15T22:16:22.856Z,0.63
2022-12-15T22:18:55.202Z,0.20
2022-12-15T22:21:23.444Z,0.77
2022-12-15T22:23:51.161Z,0.50
2022-12-15T22:26:21.244Z,0.90
2022-12-15T22:28:49.008Z,1.03
2022-12-15T22:31:16.423Z,0.50
2022-12-15T22:33:44.082Z,2.57
2022-12-15T22:36:11.363Z,0.10
2022-12-15T22:38:38.760Z,0.10
2022-12-15T22:41:06.924Z,0.50
2022-12-15T22:43:34.287Z,1.13
2022-12-15T22:46:01.606Z,1.03
2022-12-15T22:48:37.041Z,0.80
2022-12-15T22:51:05.598Z,0.20
2022-12-15T22:53:34.528Z,0.73
2022-12-15T22:56:02.600Z,0.40
2022-12-15T22:58:34.107Z,0.73
2022-12-15T23:01:01.799Z,0.83
2022-12-15T23:03:30.162Z,1.20
2022-12-15T23:05:58.641Z,1.13
2022-12-15T23:08:26.000Z,1.83
2022-12-15T23:11:15.122Z,1.00
2022-12-15T23:13:42.599Z,0.97
2022-12-15T23:16:22.418Z,0.77
2022-12-15T23:19:02.434Z,1.17
2022-12-15T23:21:30.567Z,1.97
2022-12-15T23:23:58.001Z,0.50
2022-12-15T23:26:26.199Z,1.90
2022-12-15T23:28:55.162Z,2.07
2022-12-15T23:31:23.066Z,3.17
2022-12-15T23:33:52.145Z,3.80
2022-12-15T23:36:20.120Z,8.50
2022-12-15T23:38:47.682Z,7.33
2022-12-15T23:41:16.282Z,3.50
2022-12-15T23:43:43.886Z,3.93
2022-12-15T23:46:11.595Z,4.73
2022-12-15T23:48:40.764Z,5.47
2022-12-15T23:51:08.079Z,4.73
2022-12-15T23:53:36.321Z,4.10
2022-12-15T23:56:22.960Z,6.80
2022-12-15T23:58:55.359Z,4.13
